Time;durP1;ratioP1;P1;durP2;ratioP2;P2;SDS_P1;SDS_P2;PMS_P1;PMS_P2;Temp;Humidity;BMP_temperature;BMP_pressure;BME280_temperature;BME280_humidity;BME280_pressure;Samples;Min_cycle;Max_cycle;Signal;HPM_P1;HPM_P2
2022/02/10 00:14:16;;;;;;;11.93;8.13;;;8.50;99.90;;;;;;4959489;29;20450;-82
2022/02/10 00:19:45;;;;;;;14.83;9.27;;;8.50;99.90;;;;;;4960683;29;20636;-85
2022/02/10 00:25:31;;;;;;;11.07;7.93;;;8.30;99.90;;;;;;4963807;28;20555;-86
2022/02/10 00:36:01;;;;;;;13.20;8.10;;;8.10;99.90;;;;;;4962026;28;20516;-85
2022/02/10 00:38:32;;;;;;;9.77;7.80;;;8.00;99.90;;;;;;4976135;28;20449;-85
2022/02/10 00:40:59;;;;;;;10.17;8.30;;;8.00;99.90;;;;;;4960026;28;21104;-87
2022/02/10 00:43:26;;;;;;;10.10;9.00;;;8.00;99.90;;;;;;4959761;29;20457;-84
2022/02/10 00:45:53;;;;;;;11.10;9.17;;;8.20;99.90;;;;;;4959311;28;20467;-84
2022/02/10 00:48:20;;;;;;;12.50;8.30;;;8.20;99.90;;;;;;4977308;28;20481;-85
2022/02/10 00:50:50;;;;;;;10.00;8.93;;;8.00;99.90;;;;;;4958260;28;20472;-84
2022/02/10 00:53:25;;;;;;;9.20;8.27;;;8.10;99.90;;;;;;4967411;28;20508;-84
2022/02/10 00:55:52;;;;;;;9.70;8.37;;;8.20;99.90;;;;;;4980837;28;20463;-84
2022/02/10 00:58:24;;;;;;;10.10;8.00;;;8.20;99.90;;;;;;4977639;28;20461;-83
2022/02/10 01:29:39;;;;;;;12.60;10.50;;;7.90;99.90;;;;;;4961903;29;20514;-85
2022/02/10 01:32:20;;;;;;;8.70;7.80;;;8.00;99.90;;;;;;4977266;28;20571;-86
2022/02/10 01:35:09;;;;;;;8.60;7.50;;;7.90;99.90;;;;;;4937164;29;20426;-85
2022/02/10 01:37:51;;;;;;;10.43;7.40;;;7.80;99.90;;;;;;4971284;28;20971;-85
2022/02/10 02:04:25;;;;;;;9.43;7.67;;;7.80;99.90;;;;;;4943182;28;20509;-84
2022/02/10 02:07:02;;;;;;;10.30;8.17;;;7.90;99.90;;;;;;4958435;28;20488;-85
2022/02/10 02:09:29;;;;;;;10.80;8.40;;;7.90;99.90;;;;;;4954323;28;20997;-85
2022/02/10 02:12:13;;;;;;;12.20;7.70;;;7.80;99.90;;;;;;4955506;28;20473;-84
2022/02/10 02:15:01;;;;;;;11.93;8.90;;;7.80;99.90;;;;;;4961562;28;20545;-83
2022/02/10 02:17:31;;;;;;;9.37;8.10;;;7.60;99.90;;;;;;4941129;29;20458;-83
2022/02/10 02:20:10;;;;;;;9.33;7.77;;;7.50;99.90;;;;;;4957066;28;20473;-83
2022/02/10 02:22:46;;;;;;;11.20;8.73;;;7.40;99.90;;;;;;4972082;28;20473;-85
2022/02/10 02:25:13;;;;;;;9.70;7.73;;;7.40;99.90;;;;;;4979204;28;20450;-84
2022/02/10 02:27:53;;;;;;;11.73;9.13;;;7.30;99.90;;;;;;4954799;29;20464;-82
2022/02/10 02:33:55;;;;;;;11.50;7.60;;;7.10;99.90;;;;;;4949937;29;20458;-84
2022/02/10 03:04:07;;;;;;;12.70;8.77;;;7.40;99.90;;;;;;4954453;28;20496;-83
2022/02/10 03:06:38;;;;;;;11.73;7.50;;;7.00;99.90;;;;;;4952043;28;20535;-86
2022/02/10 03:09:10;;;;;;;8.73;6.63;;;7.00;99.90;;;;;;4968511;28;21185;-84
2022/02/10 03:11:39;;;;;;;11.57;7.80;;;7.00;99.90;;;;;;4953750;28;20476;-84
2022/02/10 03:14:11;;;;;;;7.97;7.00;;;6.90;99.90;;;;;;4956835;28;21039;-82
2022/02/10 03:20:41;;;;;;;8.73;7.63;;;7.10;99.90;;;;;;4943475;28;20545;-82
2022/02/10 04:07:07;;;;;;;7.30;6.40;;;6.60;99.90;;;;;;4958259;28;20454;-84
2022/02/10 04:10:32;;;;;;;9.73;7.73;;;6.70;99.90;;;;;;4958208;29;20473;-81
2022/02/10 04:12:42;;;;;;;7.67;6.87;;;6.70;99.90;;;;;;4948894;29;20477;-83
2022/02/10 04:15:24;;;;;;;10.13;7.27;;;6.70;99.90;;;;;;4957794;29;20467;-82
2022/02/10 04:26:10;;;;;;;10.43;6.60;;;6.80;99.90;;;;;;4944928;28;20516;-83
2022/02/10 04:56:54;;;;;;;10.37;6.90;;;7.00;99.90;;;;;;4964004;28;20477;-82
2022/02/10 05:14:07;;;;;;;7.30;6.60;;;6.90;99.90;;;;;;4958768;28;20458;-84
2022/02/10 05:37:56;;;;;;;8.90;7.23;;;6.50;99.90;;;;;;4891133;29;20468;-84
2022/02/10 05:40:55;;;;;;;8.10;6.27;;;6.40;99.90;;;;;;4924545;28;20492;-83
2022/02/10 05:46:05;;;;;;;9.40;6.13;;;6.50;99.90;;;;;;4951595;29;20495;-84
2022/02/10 06:54:26;;;;;;;12.93;8.40;;;7.50;99.90;;;;;;4809313;29;20460;-87
2022/02/10 09:05:55;;;;;;;11.30;8.40;;;8.70;99.90;;;;;;4978644;23;20985;-85
2022/02/10 11:37:35;;;;;;;14.97;8.30;;;9.80;99.90;;;;;;4746214;30;20446;-86
2022/02/10 13:34:51;;;;;;;5.40;4.90;;;9.50;99.90;;;;;;4952922;29;20461;-82
2022/02/10 14:11:19;;;;;;;5.07;4.50;;;9.50;99.90;;;;;;4949204;28;20509;-81
2022/02/10 14:13:39;;;;;;;5.03;4.50;;;9.50;99.90;;;;;;4955831;28;20457;-81
2022/02/10 14:18:34;;;;;;;8.57;4.80;;;9.50;99.90;;;;;;4952328;28;20457;-80
2022/02/10 14:21:15;;;;;;;7.97;4.40;;;9.50;99.90;;;;;;4944769;29;20486;-80
2022/02/10 14:28:55;;;;;;;5.00;4.50;;;9.50;99.90;;;;;;4942185;29;21351;-80
2022/02/10 14:31:25;;;;;;;5.30;4.57;;;9.50;99.90;;;;;;4957046;28;20485;-81
2022/02/10 14:33:52;;;;;;;5.67;4.80;;;9.40;99.90;;;;;;4936100;28;20465;-81
2022/02/10 14:36:29;;;;;;;5.10;4.53;;;9.50;99.90;;;;;;4944147;28;20861;-79
2022/02/10 15:52:29;;;;;;;2.63;1.90;;;9.30;99.90;;;;;;4942990;29;20488;-82
2022/02/10 15:55:23;;;;;;;1.80;1.70;;;9.20;99.90;;;;;;4939416;28;20457;-81
2022/02/10 16:12:11;;;;;;;3.00;2.40;;;9.30;99.90;;;;;;4940225;29;20494;-81
2022/02/10 16:17:05;;;;;;;2.03;1.50;;;9.40;99.90;;;;;;4942427;28;20465;-82
2022/02/10 16:19:34;;;;;;;2.13;1.93;;;9.40;99.90;;;;;;4941921;29;20473;-82
2022/02/10 16:22:22;;;;;;;2.63;2.43;;;9.30;99.90;;;;;;4943105;28;20516;-81
2022/02/10 16:25:00;;;;;;;2.40;2.20;;;9.30;99.90;;;;;;4943383;29;20488;-82
2022/02/10 16:27:31;;;;;;;8.40;3.40;;;9.30;99.90;;;;;;4940450;29;20500;-80
2022/02/10 16:30:03;;;;;;;2.40;2.20;;;9.50;99.90;;;;;;4943988;29;20480;-80
2022/02/10 16:32:35;;;;;;;3.20;2.93;;;9.50;99.90;;;;;;4939999;29;20526;-80
2022/02/10 16:35:03;;;;;;;3.57;3.00;;;9.40;99.90;;;;;;4939307;28;20485;-81
2022/02/10 16:37:30;;;;;;;2.83;2.50;;;9.40;99.90;;;;;;4941412;28;20983;-82
2022/02/10 16:39:57;;;;;;;3.50;3.20;;;9.40;99.90;;;;;;4938498;28;20564;-81
2022/02/10 16:42:25;;;;;;;3.80;3.50;;;9.40;99.90;;;;;;4946408;29;20501;-82
2022/02/10 16:44:53;;;;;;;3.47;3.13;;;9.30;99.90;;;;;;4925058;29;20523;-82
2022/02/10 16:47:20;;;;;;;3.83;3.50;;;9.30;99.90;;;;;;4927416;28;21029;-82
2022/02/10 16:50:01;;;;;;;4.47;3.27;;;9.30;99.90;;;;;;4974834;23;20505;-82
2022/02/10 16:53:13;;;;;;;4.10;3.73;;;9.30;99.90;;;;;;4966110;28;20987;-83
2022/02/10 16:56:00;;;;;;;4.17;3.77;;;9.30;99.90;;;;;;4956063;28;20763;-82
2022/02/10 16:58:49;;;;;;;3.80;3.40;;;9.30;99.90;;;;;;4968589;28;20463;-81
2022/02/10 17:04:58;;;;;;;4.37;3.40;;;9.30;99.90;;;;;;4941917;29;20478;-82
2022/02/10 17:19:09;;;;;;;5.53;4.80;;;9.30;99.90;;;;;;4942110;29;20533;-82
2022/02/10 17:28:07;;;;;;;5.10;4.47;;;9.30;99.90;;;;;;4925777;29;20534;-81
2022/02/10 17:31:19;;;;;;;4.83;4.40;;;9.30;99.90;;;;;;4933202;29;20482;-81
2022/02/10 17:34:40;;;;;;;7.30;6.40;;;9.30;99.90;;;;;;4943947;29;20975;-80
2022/02/10 17:46:13;;;;;;;7.07;5.70;;;9.30;99.90;;;;;;4899068;29;20808;-79
2022/02/10 17:52:10;;;;;;;4.63;4.20;;;9.50;99.90;;;;;;4974786;23;20503;-84
2022/02/10 17:54:41;;;;;;;5.50;4.00;;;9.30;99.90;;;;;;4978018;28;20483;-84
2022/02/10 17:57:09;;;;;;;5.97;5.10;;;9.20;99.90;;;;;;4978143;28;20465;-84
2022/02/10 17:59:39;;;;;;;8.17;5.17;;;9.30;99.90;;;;;;4976765;28;20516;-83
2022/02/10 18:02:09;;;;;;;6.17;5.57;;;9.40;99.90;;;;;;4961809;28;20523;-85
2022/02/10 18:04:36;;;;;;;5.67;5.17;;;9.30;99.90;;;;;;4960542;29;20457;-85
2022/02/10 18:07:09;;;;;;;5.50;5.00;;;9.40;99.90;;;;;;4963131;29;20456;-84
2022/02/10 18:15:08;;;;;;;9.10;6.00;;;10.10;99.90;;;;;;4964190;28;20449;-84
2022/02/10 18:17:48;;;;;;;7.47;6.23;;;9.90;99.90;;;;;;4962559;29;20896;-85
2022/02/10 18:20:29;;;;;;;6.43;5.70;;;9.60;99.90;;;;;;4979700;28;20445;-83
2022/02/10 18:23:08;;;;;;;5.50;4.60;;;9.60;99.90;;;;;;4960099;29;20499;-86
2022/02/10 18:25:58;;;;;;;7.50;5.87;;;9.50;99.90;;;;;;4978034;28;20468;-87
2022/02/10 18:29:00;;;;;;;8.67;6.23;;;9.60;99.90;;;;;;4966490;29;20468;-84
2022/02/10 19:07:55;;;;;;;7.87;6.20;;;8.90;99.90;;;;;;4965073;28;20464;-85
2022/02/10 19:10:34;;;;;;;7.33;6.00;;;9.10;99.90;;;;;;4963533;29;20448;-83
2022/02/10 19:13:17;;;;;;;7.00;6.03;;;9.60;99.90;;;;;;4980288;28;20484;-85
2022/02/10 19:15:44;;;;;;;9.90;6.67;;;9.30;99.90;;;;;;4965115;28;20500;-85
2022/02/10 19:18:17;;;;;;;8.27;6.90;;;9.10;99.90;;;;;;4957129;29;20485;-85
2022/02/10 19:20:47;;;;;;;10.17;7.47;;;9.10;99.90;;;;;;4962186;29;20463;-84
2022/02/10 19:23:17;;;;;;;8.27;7.20;;;9.00;99.90;;;;;;4980519;28;20460;-83
2022/02/10 19:25:46;;;;;;;8.80;7.53;;;9.00;99.90;;;;;;4962688;28;20460;-83
2022/02/10 19:28:17;;;;;;;11.07;6.80;;;8.90;99.90;;;;;;4964486;29;20928;-83
2022/02/10 19:30:45;;;;;;;6.00;5.40;;;8.80;99.90;;;;;;4969105;28;20522;-83
2022/02/10 19:33:16;;;;;;;4.80;4.40;;;8.70;99.90;;;;;;4972727;29;20480;-88
2022/02/10 19:35:51;;;;;;;6.37;4.50;;;8.60;99.90;;;;;;4967609;29;20457;-84
2022/02/10 19:38:23;;;;;;;6.40;4.37;;;8.60;99.90;;;;;;4980752;28;20556;-85
2022/02/10 19:40:57;;;;;;;6.43;4.77;;;8.60;99.90;;;;;;4966025;29;20504;-86
2022/02/10 19:43:48;;;;;;;6.40;4.73;;;8.50;99.90;;;;;;4965454;29;20459;-86
2022/02/10 19:46:20;;;;;;;6.40;5.30;;;8.50;99.90;;;;;;4964519;29;20453;-85
2022/02/10 19:48:54;;;;;;;9.10;5.37;;;8.60;99.90;;;;;;4963857;29;20448;-87
2022/02/10 19:51:24;;;;;;;5.07;4.50;;;8.60;99.90;;;;;;4966835;28;20522;-86
2022/02/10 19:54:25;;;;;;;6.30;4.77;;;8.50;99.90;;;;;;4975469;29;20487;-84
2022/02/10 19:57:00;;;;;;;5.30;4.33;;;8.40;99.90;;;;;;4979478;29;20445;-84
2022/02/10 19:59:33;;;;;;;5.20;4.17;;;8.40;99.90;;;;;;4978869;28;20444;-87
2022/02/10 20:02:06;;;;;;;4.83;4.33;;;8.40;99.90;;;;;;4960400;29;20469;-86
2022/02/10 20:04:40;;;;;;;4.30;3.77;;;8.30;99.90;;;;;;4961038;29;20457;-85
2022/02/10 20:07:38;;;;;;;5.87;3.90;;;8.30;99.90;;;;;;4965649;29;20466;-87
2022/02/10 20:10:15;;;;;;;2.90;2.47;;;8.20;99.90;;;;;;4967820;29;20461;-84
2022/02/10 20:12:48;;;;;;;2.37;2.13;;;8.00;99.90;;;;;;4989775;28;20477;-85
2022/02/10 20:15:37;;;;;;;1.70;1.60;;;7.90;99.90;;;;;;4969094;28;20449;-85
2022/02/10 20:18:25;;;;;;;1.90;1.80;;;7.80;99.90;;;;;;4967525;29;20541;-86
2022/02/10 20:21:12;;;;;;;2.67;1.90;;;7.70;99.90;;;;;;4966148;29;20481;-86
2022/02/10 20:23:51;;;;;;;1.97;1.20;;;7.60;99.90;;;;;;4969636;29;20459;-86
2022/02/10 20:26:43;;;;;;;2.43;1.57;;;7.60;99.90;;;;;;4984177;28;20461;-87
2022/02/10 20:29:35;;;;;;;2.07;1.60;;;7.60;99.90;;;;;;4967838;29;20464;-87
2022/02/10 20:32:31;;;;;;;1.20;1.10;;;7.50;99.90;;;;;;4965022;28;20483;-86
2022/02/10 20:35:11;;;;;;;1.10;1.00;;;7.40;99.90;;;;;;4992257;28;20518;-87
2022/02/10 20:38:08;;;;;;;1.23;0.70;;;7.40;99.90;;;;;;4987619;28;20484;-84
2022/02/10 20:40:56;;;;;;;1.53;0.90;;;7.40;99.90;;;;;;4961563;29;20450;-87
2022/02/10 20:43:38;;;;;;;3.00;2.60;;;7.40;99.90;;;;;;4970499;28;20533;-89
2022/02/10 20:46:19;;;;;;;2.27;1.40;;;7.40;99.90;;;;;;4980322;28;20475;-86
2022/02/10 20:48:56;;;;;;;2.03;1.83;;;7.40;99.90;;;;;;4980245;28;20448;-85
2022/02/10 20:51:27;;;;;;;2.40;0.90;;;7.50;99.90;;;;;;4978935;28;20559;-83
2022/02/10 20:54:09;;;;;;;1.03;0.93;;;7.60;99.90;;;;;;4988926;28;20492;-87
2022/02/10 20:56:49;;;;;;;2.07;1.33;;;7.40;99.90;;;;;;4970214;28;20504;-85
2022/02/10 20:59:44;;;;;;;1.60;1.40;;;7.40;99.90;;;;;;4978887;29;20444;-84
2022/02/10 21:02:46;;;;;;;2.57;1.60;;;7.40;99.90;;;;;;5058020;23;20564;-86
2022/02/10 21:05:41;;;;;;;1.63;1.53;;;7.40;99.90;;;;;;4930890;29;20475;-86
2022/02/10 21:08:44;;;;;;;3.17;1.50;;;7.40;99.90;;;;;;4947840;29;20440;-85
2022/02/10 21:11:37;;;;;;;1.90;1.50;;;7.50;99.90;;;;;;4935765;29;20479;-87
2022/02/10 21:14:31;;;;;;;2.13;1.97;;;7.60;99.90;;;;;;4922227;29;20479;-86
2022/02/10 21:17:11;;;;;;;3.00;1.70;;;7.30;99.90;;;;;;4938872;29;20454;-88
2022/02/10 21:20:13;;;;;;;2.40;1.40;;;7.20;99.90;;;;;;4930554;29;20490;-88
2022/02/10 21:23:00;;;;;;;2.20;1.70;;;7.20;99.90;;;;;;4940002;29;20581;-88
2022/02/10 21:25:50;;;;;;;2.20;1.20;;;7.20;99.90;;;;;;4934171;29;20462;-87
2022/02/10 21:31:02;;;;;;;3.00;1.33;;;7.10;99.90;;;;;;4944331;29;20446;-86
2022/02/10 21:42:46;;;;;;;2.50;1.83;;;6.80;99.90;;;;;;4928998;29;20574;-83
2022/02/10 21:59:41;;;;;;;1.53;0.70;;;6.50;99.90;;;;;;4937721;29;20486;-87
2022/02/10 22:17:46;;;;;;;1.87;0.90;;;6.40;99.90;;;;;;4947081;29;20472;-87
2022/02/10 22:20:42;;;;;;;2.37;1.03;;;6.40;99.90;;;;;;4937993;29;20426;-87
2022/02/10 22:24:07;;;;;;;2.30;0.83;;;6.40;99.90;;;;;;4927586;29;20455;-85
2022/02/10 22:26:44;;;;;;;2.67;1.20;;;6.40;99.90;;;;;;4926808;29;20493;-85
2022/02/10 22:29:30;;;;;;;1.30;1.00;;;6.50;99.90;;;;;;4941679;29;20577;-87
2022/02/10 22:35:29;;;;;;;2.33;1.17;;;6.40;99.90;;;;;;4931784;29;20487;-84
2022/02/10 22:38:13;;;;;;;1.03;0.80;;;6.50;99.90;;;;;;4930721;29;20451;-86
2022/02/10 22:41:16;;;;;;;2.57;1.00;;;6.40;99.90;;;;;;4946190;29;20550;-85
2022/02/10 22:44:14;;;;;;;1.73;1.13;;;6.40;99.90;;;;;;4932591;29;20450;-85
2022/02/10 22:47:01;;;;;;;1.70;0.90;;;6.50;99.90;;;;;;4947015;29;20461;-86
2022/02/10 22:49:40;;;;;;;3.83;1.10;;;6.50;99.90;;;;;;4928817;29;20451;-86
2022/02/10 22:52:29;;;;;;;1.40;1.20;;;6.50;99.90;;;;;;4928923;29;20462;-88
2022/02/10 22:55:06;;;;;;;2.90;1.90;;;6.50;99.90;;;;;;4942939;29;20474;-86
2022/02/10 22:57:47;;;;;;;1.60;1.37;;;6.40;99.90;;;;;;4929284;29;20762;-87
2022/02/10 23:00:49;;;;;;;1.63;1.50;;;6.40;99.90;;;;;;4938035;29;20455;-86
2022/02/10 23:03:31;;;;;;;1.67;1.50;;;6.30;99.90;;;;;;4924504;29;20542;-85
2022/02/10 23:06:20;;;;;;;3.87;1.87;;;6.30;99.90;;;;;;4937708;29;20495;-84
2022/02/10 23:09:26;;;;;;;2.60;1.57;;;6.20;99.90;;;;;;4949050;28;20466;-86
2022/02/10 23:11:55;;;;;;;1.33;1.23;;;6.30;99.90;;;;;;4928430;29;20510;-86
2022/02/10 23:14:39;;;;;;;1.80;1.30;;;6.40;99.90;;;;;;4928287;29;20479;-86
2022/02/10 23:17:32;;;;;;;1.60;1.50;;;6.50;99.90;;;;;;4941863;29;20455;-86
2022/02/10 23:20:10;;;;;;;5.03;1.50;;;6.80;99.90;;;;;;4929004;29;20462;-85
2022/02/10 23:22:53;;;;;;;2.20;1.97;;;6.90;99.90;;;;;;4927453;29;20957;-87
2022/02/10 23:25:35;;;;;;;4.10;1.57;;;6.70;99.90;;;;;;4929572;29;20835;-85
2022/02/10 23:28:32;;;;;;;2.30;1.53;;;6.70;99.90;;;;;;4913251;29;20466;-87
2022/02/10 23:31:13;;;;;;;2.00;1.80;;;6.50;99.90;;;;;;4924173;29;20490;-87
2022/02/10 23:33:51;;;;;;;1.63;1.53;;;6.50;99.90;;;;;;4926029;29;20487;-87
2022/02/10 23:39:34;;;;;;;2.37;2.27;;;6.50;99.90;;;;;;4927343;29;20537;-86
2022/02/10 23:42:29;;;;;;;3.93;1.90;;;6.60;99.90;;;;;;4925081;29;20478;-85
2022/02/10 23:45:18;;;;;;;2.53;1.77;;;6.50;99.90;;;;;;4926143;29;20951;-86
2022/02/10 23:47:51;;;;;;;1.90;1.80;;;6.40;99.90;;;;;;4927228;29;20446;-84
2022/02/10 23:50:28;;;;;;;3.67;2.00;;;6.20;99.90;;;;;;4936046;29;20453;-85
2022/02/10 23:53:07;;;;;;;1.60;1.50;;;6.10;99.90;;;;;;4921019;29;20490;-86
2022/02/10 23:55:48;;;;;;;1.50;1.40;;;6.20;99.90;;;;;;4931540;29;20469;-85
